createdAt,value
2024-04-30T00:02:26.958Z,100574.00
2024-04-30T00:04:54.623Z,100564.00
2024-04-30T00:07:21.938Z,100569.00
2024-04-30T00:09:49.337Z,100567.00
2024-04-30T00:12:16.802Z,100576.00
2024-04-30T00:14:44.057Z,100565.00
2024-04-30T00:17:11.223Z,100567.00
2024-04-30T00:19:41.718Z,100570.00
2024-04-30T00:22:09.007Z,100562.00
2024-04-30T00:24:36.235Z,100556.00
2024-04-30T00:27:03.887Z,100559.00
2024-04-30T00:29:31.158Z,100556.00
2024-04-30T00:31:58.397Z,100551.00
2024-04-30T00:34:26.295Z,100555.00
2024-04-30T00:36:53.507Z,100547.00
2024-04-30T00:39:20.667Z,100548.00
2024-04-30T00:41:48.496Z,100549.00
2024-04-30T00:44:15.673Z,100553.00
2024-04-30T00:46:42.949Z,100556.00
2024-04-30T00:49:10.763Z,100556.00
2024-04-30T00:51:38.007Z,100552.00
2024-04-30T00:54:05.298Z,100546.00
2024-04-30T00:56:32.847Z,100542.00
2024-04-30T00:59:00.292Z,100550.00
2024-04-30T01:01:27.658Z,100544.00
2024-04-30T01:03:55.185Z,100547.00
2024-04-30T01:06:22.412Z,100533.00
2024-04-30T01:08:49.637Z,100541.00
2024-04-30T01:11:17.504Z,100540.00
2024-04-30T01:13:45.010Z,100540.00
2024-04-30T01:16:12.198Z,100535.00
2024-04-30T01:18:39.768Z,100535.00
2024-04-30T01:21:07.041Z,100536.00
2024-04-30T01:23:34.563Z,100538.00
2024-04-30T01:26:01.753Z,100541.00
2024-04-30T01:28:29.506Z,100533.00
2024-04-30T01:30:57.110Z,100535.00
2024-04-30T01:33:24.350Z,100534.00
2024-04-30T01:35:51.568Z,100525.00
2024-04-30T01:38:19.149Z,100534.00
2024-04-30T01:40:47.595Z,100523.00
2024-04-30T01:43:14.802Z,100523.00
2024-04-30T01:45:42.327Z,100530.00
2024-04-30T01:48:09.599Z,100517.00
2024-04-30T01:50:36.866Z,100516.00
2024-04-30T01:53:04.494Z,100522.00
2024-04-30T01:55:31.724Z,100514.00
2024-04-30T01:57:59.045Z,100518.00
2024-04-30T02:00:26.661Z,100509.00
2024-04-30T02:02:53.839Z,100501.00
2024-04-30T02:05:25.140Z,100502.00
2024-04-30T02:07:53.660Z,100503.00
2024-04-30T02:10:20.891Z,100499.00
2024-04-30T02:12:48.075Z,100497.00
2024-04-30T02:15:15.712Z,100491.00
2024-04-30T02:17:43.052Z,100490.00
2024-04-30T02:20:10.937Z,100495.00
2024-04-30T02:22:38.545Z,100495.00
2024-04-30T02:25:06.036Z,100490.00
2024-04-30T02:27:33.606Z,100488.00
2024-04-30T02:30:01.179Z,100493.00
2024-04-30T02:32:47.215Z,100496.00
2024-04-30T02:35:14.895Z,100486.00
2024-04-30T02:37:42.200Z,100490.00
2024-04-30T02:40:09.597Z,100491.00
2024-04-30T02:42:37.188Z,100491.00
2024-04-30T02:45:04.575Z,100485.00
2024-04-30T02:47:31.903Z,100474.00
2024-04-30T02:49:59.722Z,100479.00
2024-04-30T02:52:26.854Z,100476.00
2024-04-30T02:54:53.965Z,100469.00
2024-04-30T02:57:21.518Z,100476.00
2024-04-30T02:59:48.682Z,100467.00
2024-04-30T03:02:15.802Z,100458.00
2024-04-30T03:04:46.263Z,100462.00
2024-04-30T03:07:13.505Z,100472.00
2024-04-30T03:09:40.657Z,100454.00
2024-04-30T03:12:08.375Z,100454.00
2024-04-30T03:14:35.935Z,100457.00
2024-04-30T03:17:03.198Z,100450.00
2024-04-30T03:19:31.049Z,100451.00
2024-04-30T03:21:58.465Z,100454.00
2024-04-30T03:24:25.744Z,100448.00
2024-04-30T03:26:53.263Z,100439.00
2024-04-30T03:29:20.480Z,100444.00
2024-04-30T03:31:47.707Z,100437.00
2024-04-30T03:34:15.769Z,100437.00
2024-04-30T03:36:43.153Z,100443.00
2024-04-30T03:39:12.619Z,100440.00
2024-04-30T03:41:40.761Z,100442.00
2024-04-30T03:44:07.972Z,100436.00
2024-04-30T03:46:35.262Z,100430.00
2024-04-30T03:49:03.464Z,100429.00
2024-04-30T03:51:30.697Z,100432.00
2024-04-30T03:53:57.857Z,100423.00
2024-04-30T03:56:25.445Z,100425.00
2024-04-30T03:58:52.604Z,100426.00
2024-04-30T04:01:19.782Z,100427.00
2024-04-30T04:03:47.375Z,100427.00
2024-04-30T04:06:17.549Z,100427.00
2024-04-30T04:08:45.148Z,100430.00
2024-04-30T04:11:31.559Z,100423.00
2024-04-30T04:14:17.526Z,100429.00
2024-04-30T04:16:45.017Z,100435.00
2024-04-30T04:19:12.461Z,100443.00
2024-04-30T04:21:40.335Z,100447.00
2024-04-30T04:24:08.135Z,100454.00
2024-04-30T04:26:35.318Z,100451.00
2024-04-30T04:29:02.779Z,100451.00
2024-04-30T04:31:30.340Z,100446.00
2024-04-30T04:33:57.732Z,100442.00
2024-04-30T04:36:24.935Z,100450.00
2024-04-30T04:38:52.592Z,100442.00
2024-04-30T04:41:19.723Z,100442.00
2024-04-30T04:43:46.927Z,100432.00
2024-04-30T04:46:14.528Z,100436.00
2024-04-30T04:48:41.962Z,100437.00
2024-04-30T04:51:09.181Z,100427.00
2024-04-30T04:53:39.914Z,100443.00
2024-04-30T04:56:09.867Z,100439.00
2024-04-30T04:58:37.399Z,100434.00
2024-04-30T05:01:04.782Z,100437.00
2024-04-30T05:03:31.978Z,100430.00
2024-04-30T05:05:59.509Z,100422.00
2024-04-30T05:08:27.118Z,100423.00
2024-04-30T05:10:54.361Z,100430.00
2024-04-30T05:13:22.175Z,100427.00
2024-04-30T05:15:49.343Z,100419.00
2024-04-30T05:18:16.547Z,100432.00
2024-04-30T05:20:44.611Z,100428.00
2024-04-30T05:23:11.727Z,100437.00
2024-04-30T05:25:38.940Z,100427.00
2024-04-30T05:28:07.324Z,100419.00
2024-04-30T05:30:34.476Z,100429.00
2024-04-30T05:33:01.708Z,100426.00
2024-04-30T05:35:29.387Z,100428.00
2024-04-30T05:37:56.562Z,100422.00
2024-04-30T05:40:23.706Z,100434.00
2024-04-30T05:42:51.254Z,100437.00
2024-04-30T05:45:21.014Z,100435.00
2024-04-30T05:47:48.182Z,100430.00
2024-04-30T05:50:15.852Z,100418.00
2024-04-30T05:52:43.004Z,100426.00
2024-04-30T05:55:10.247Z,100420.00
2024-04-30T05:57:38.082Z,100417.00
2024-04-30T06:00:05.600Z,100415.00
2024-04-30T06:02:32.888Z,100407.00
2024-04-30T06:05:00.679Z,100411.00
2024-04-30T06:07:27.911Z,100399.00
2024-04-30T06:09:55.621Z,100395.00
2024-04-30T06:12:23.153Z,100396.00
2024-04-30T06:14:50.351Z,100393.00
2024-04-30T06:17:20.024Z,100394.00
2024-04-30T06:19:47.846Z,100394.00
2024-04-30T06:22:15.030Z,100384.00
2024-04-30T06:24:42.214Z,100385.00
2024-04-30T06:27:09.747Z,100385.00
2024-04-30T06:29:38.829Z,100379.00
2024-04-30T06:32:07.091Z,100379.00
2024-04-30T06:34:34.934Z,100368.00
2024-04-30T06:37:02.312Z,100364.00
2024-04-30T06:39:29.782Z,100365.00
2024-04-30T06:41:57.277Z,100355.00
2024-04-30T06:44:24.440Z,100361.00
2024-04-30T06:46:51.585Z,100356.00
2024-04-30T06:49:19.612Z,100352.00
2024-04-30T06:51:46.851Z,100343.00
2024-04-30T06:54:14.108Z,100339.00
2024-04-30T06:56:41.976Z,100351.00
2024-04-30T06:59:09.131Z,100344.00
2024-04-30T07:01:36.590Z,100335.00
2024-04-30T07:04:04.462Z,100330.00
2024-04-30T07:06:31.631Z,100333.00
2024-04-30T07:08:58.810Z,100330.00
2024-04-30T07:11:26.739Z,100330.00
2024-04-30T07:13:53.856Z,100334.00
2024-04-30T07:16:21.068Z,100326.00
2024-04-30T07:18:49.124Z,100332.00
2024-04-30T07:21:16.671Z,100337.00
2024-04-30T07:23:43.806Z,100335.00
2024-04-30T07:26:11.749Z,100324.00
2024-04-30T07:28:39.756Z,100323.00
2024-04-30T07:31:08.620Z,100335.00
2024-04-30T07:33:36.250Z,100323.00
2024-04-30T07:36:03.781Z,100317.00
2024-04-30T07:38:31.019Z,100321.00
2024-04-30T07:40:58.488Z,100319.00
2024-04-30T07:43:25.697Z,100316.00
2024-04-30T07:45:52.863Z,100321.00
2024-04-30T07:48:20.524Z,100312.00
2024-04-30T07:50:47.698Z,100312.00
2024-04-30T07:53:14.859Z,100305.00
2024-04-30T07:55:42.444Z,100288.00
2024-04-30T07:58:09.735Z,100299.00
2024-04-30T08:00:37.080Z,100300.00
2024-04-30T08:03:04.976Z,100302.00
2024-04-30T08:05:41.982Z,100309.00
2024-04-30T08:08:14.031Z,100305.00
2024-04-30T08:10:41.739Z,100306.00
2024-04-30T08:13:09.024Z,100304.00
2024-04-30T08:15:36.659Z,100308.00
2024-04-30T08:18:04.020Z,100311.00
2024-04-30T08:20:31.249Z,100312.00
2024-04-30T08:22:59.047Z,100308.00
2024-04-30T08:25:26.497Z,100306.00
2024-04-30T08:27:53.740Z,100308.00
2024-04-30T08:30:21.322Z,100309.00
2024-04-30T08:32:49.356Z,100301.00
2024-04-30T08:35:16.610Z,100303.00
2024-04-30T08:37:51.736Z,100298.00
2024-04-30T08:40:22.521Z,100297.00
2024-04-30T08:42:50.859Z,100297.00
2024-04-30T08:45:22.212Z,100297.00
2024-04-30T08:47:50.715Z,100289.00
2024-04-30T08:50:18.673Z,100299.00
2024-04-30T08:52:46.278Z,100299.00
2024-04-30T08:55:14.755Z,100297.00
2024-04-30T08:57:42.020Z,100292.00
2024-04-30T09:00:09.507Z,100288.00
2024-04-30T09:02:39.198Z,100287.00
2024-04-30T09:05:06.820Z,100290.00
2024-04-30T09:07:34.968Z,100289.00
2024-04-30T09:10:03.225Z,100285.00
2024-04-30T09:12:32.231Z,100277.00
2024-04-30T09:14:59.721Z,100274.00
2024-04-30T09:17:28.817Z,100267.00
2024-04-30T09:20:05.712Z,100250.00
2024-04-30T09:22:34.299Z,100263.00
2024-04-30T09:25:01.833Z,100264.00
2024-04-30T09:27:35.454Z,100257.00
2024-04-30T09:30:03.193Z,100258.00
2024-04-30T09:32:30.473Z,100263.00
2024-04-30T09:34:57.661Z,100254.00
2024-04-30T09:37:25.335Z,100246.00
2024-04-30T09:39:54.419Z,100250.00
2024-04-30T09:42:21.821Z,100245.00
2024-04-30T09:44:51.635Z,100251.00
2024-04-30T09:47:19.699Z,100236.00
2024-04-30T09:49:47.350Z,100240.00
2024-04-30T09:52:15.908Z,100236.00
2024-04-30T09:54:44.606Z,100239.00
2024-04-30T09:57:12.118Z,100235.00
2024-04-30T09:59:39.727Z,100233.00
2024-04-30T10:02:11.722Z,100233.00
2024-04-30T10:04:39.522Z,100231.00
2024-04-30T10:07:07.815Z,100230.00
2024-04-30T10:09:35.030Z,100216.00
2024-04-30T10:12:02.282Z,100222.00
2024-04-30T10:14:30.456Z,100223.00
2024-04-30T10:16:59.808Z,100225.00
2024-04-30T10:19:27.750Z,100222.00
2024-04-30T10:21:55.427Z,100220.00
2024-04-30T10:24:23.338Z,100221.00
2024-04-30T10:26:51.344Z,100208.00
2024-04-30T10:29:19.186Z,100216.00
2024-04-30T10:31:48.607Z,100219.00
2024-04-30T10:34:16.105Z,100217.00
2024-04-30T10:36:48.029Z,100214.00
2024-04-30T10:39:26.379Z,100211.00
2024-04-30T10:41:54.452Z,100204.00
2024-04-30T10:44:21.622Z,100203.00
2024-04-30T10:46:49.232Z,100198.00
2024-04-30T10:49:22.498Z,100190.00
2024-04-30T10:51:51.469Z,100181.00
2024-04-30T10:54:19.137Z,100182.00
2024-04-30T10:56:46.740Z,100178.00
2024-04-30T10:59:13.998Z,100174.00
2024-04-30T11:01:41.618Z,100174.00
2024-04-30T11:04:12.854Z,100162.00
2024-04-30T11:06:45.101Z,100156.00
2024-04-30T11:09:14.541Z,100146.00
2024-04-30T11:11:48.501Z,100148.00
2024-04-30T11:14:16.560Z,100142.00
2024-04-30T11:16:44.077Z,100146.00
2024-04-30T11:19:13.180Z,100144.00
2024-04-30T11:21:41.033Z,100145.00
2024-04-30T11:24:08.322Z,100131.00
2024-04-30T11:26:35.525Z,100120.00
2024-04-30T11:29:15.936Z,100123.00
2024-04-30T11:31:50.393Z,100124.00
2024-04-30T11:34:18.019Z,100118.00
2024-04-30T11:36:45.343Z,100112.00
2024-04-30T11:39:14.072Z,100114.00
2024-04-30T11:41:48.696Z,100115.00
2024-04-30T11:44:19.835Z,100112.00
2024-04-30T11:46:47.411Z,100110.00
2024-04-30T11:49:14.664Z,100106.00
2024-04-30T11:51:42.234Z,100100.00
2024-04-30T11:54:10.090Z,100098.00
2024-04-30T11:56:37.294Z,100095.00
2024-04-30T11:59:04.503Z,100093.00
2024-04-30T12:01:32.045Z,100083.00
2024-04-30T12:03:59.215Z,100083.00
2024-04-30T12:06:26.538Z,100087.00
2024-04-30T12:08:54.121Z,100088.00
2024-04-30T12:11:21.410Z,100084.00
2024-04-30T12:13:48.836Z,100079.00
2024-04-30T12:16:16.979Z,100079.00
2024-04-30T12:18:44.190Z,100079.00
2024-04-30T12:21:12.118Z,100067.00
2024-04-30T12:23:40.012Z,100057.00
2024-04-30T12:26:07.207Z,100064.00
2024-04-30T12:28:35.036Z,100062.00
2024-04-30T12:31:02.571Z,100046.00
2024-04-30T12:33:29.921Z,100054.00
2024-04-30T12:35:57.124Z,100049.00
2024-04-30T12:38:24.783Z,100048.00
2024-04-30T12:40:52.019Z,100045.00
2024-04-30T12:43:19.289Z,100045.00
2024-04-30T12:45:46.861Z,100032.00
2024-04-30T12:48:14.091Z,100036.00
2024-04-30T12:50:41.331Z,100026.00
2024-04-30T12:53:08.862Z,100019.00
2024-04-30T12:55:36.045Z,100016.00
2024-04-30T12:58:03.215Z,100007.00
2024-04-30T13:00:30.866Z,100007.00
2024-04-30T13:02:58.186Z,99996.00
2024-04-30T13:05:25.821Z,99994.00
2024-04-30T13:07:54.612Z,99998.00
2024-04-30T13:10:21.803Z,99998.00
2024-04-30T13:12:49.172Z,99993.00
2024-04-30T13:15:16.723Z,99991.00
2024-04-30T13:17:44.039Z,99999.00
2024-04-30T13:20:11.214Z,99990.00
2024-04-30T13:22:38.801Z,99995.00
2024-04-30T13:25:06.698Z,99992.00
2024-04-30T13:27:34.192Z,99982.00
2024-04-30T13:30:01.774Z,99973.00
2024-04-30T13:32:29.307Z,99980.00
2024-04-30T13:34:56.671Z,99969.00
2024-04-30T13:37:24.573Z,99975.00
2024-04-30T13:39:51.760Z,99977.00
2024-04-30T13:42:19.628Z,99970.00
2024-04-30T13:44:47.209Z,99975.00
2024-04-30T13:47:14.385Z,99967.00
2024-04-30T13:49:42.306Z,99968.00
2024-04-30T13:52:09.945Z,99968.00
2024-04-30T13:54:37.341Z,99968.00
2024-04-30T13:57:04.623Z,99961.00
2024-04-30T13:59:32.247Z,99968.00
2024-04-30T14:01:59.619Z,99968.00
2024-04-30T14:04:27.057Z,99955.00
2024-04-30T14:06:55.936Z,99959.00
2024-04-30T14:09:23.103Z,99953.00
2024-04-30T14:11:50.376Z,99947.00
2024-04-30T14:14:17.912Z,99946.00
2024-04-30T14:16:45.480Z,99949.00
2024-04-30T14:19:12.778Z,99957.00
2024-04-30T14:21:40.779Z,99951.00
2024-04-30T14:24:08.120Z,99947.00
2024-04-30T14:26:35.293Z,99943.00
2024-04-30T14:29:03.302Z,99942.00
2024-04-30T14:31:30.888Z,99937.00
2024-04-30T14:33:58.460Z,99929.00
2024-04-30T14:36:34.239Z,99926.00
2024-04-30T14:39:11.709Z,99926.00
2024-04-30T14:41:40.503Z,99927.00
2024-04-30T14:44:07.776Z,99928.00
2024-04-30T14:46:35.115Z,99928.00
2024-04-30T14:49:03.236Z,99928.00
2024-04-30T14:51:37.068Z,99921.00
2024-04-30T14:54:05.368Z,99916.00
2024-04-30T14:56:33.650Z,99918.00
2024-04-30T14:59:04.546Z,99919.00
2024-04-30T15:01:42.272Z,99913.00
2024-04-30T15:04:10.618Z,99909.00
2024-04-30T15:06:38.233Z,99910.00
2024-04-30T15:09:09.866Z,99910.00
2024-04-30T15:11:37.118Z,99908.00
2024-04-30T15:14:07.843Z,99898.00
2024-04-30T15:16:35.376Z,99903.00
2024-04-30T15:19:02.637Z,99905.00
2024-04-30T15:21:30.290Z,99904.00
2024-04-30T15:23:57.492Z,99902.00
2024-04-30T15:26:24.698Z,99900.00
2024-04-30T15:28:53.484Z,99906.00
2024-04-30T15:31:24.030Z,99904.00
2024-04-30T15:33:52.204Z,99903.00
2024-04-30T15:36:19.633Z,99899.00
2024-04-30T15:38:47.006Z,99902.00
2024-04-30T15:41:23.962Z,99890.00
2024-04-30T15:43:52.379Z,99896.00
2024-04-30T15:46:20.159Z,99894.00
2024-04-30T15:48:50.348Z,99892.00
2024-04-30T15:51:17.856Z,99893.00
2024-04-30T15:53:45.450Z,99890.00
2024-04-30T15:56:17.669Z,99889.00
2024-04-30T15:58:46.966Z,99891.00
2024-04-30T16:01:14.451Z,99884.00
2024-04-30T16:03:41.805Z,99881.00
2024-04-30T16:06:09.822Z,99875.00
2024-04-30T16:08:37.251Z,99876.00
2024-04-30T16:11:09.855Z,99881.00
2024-04-30T16:13:39.588Z,99872.00
2024-04-30T16:16:15.703Z,99868.00
2024-04-30T16:18:47.368Z,99873.00
2024-04-30T16:21:15.351Z,99866.00
2024-04-30T16:23:43.263Z,99865.00
2024-04-30T16:26:10.976Z,99863.00
2024-04-30T16:28:41.926Z,99861.00
2024-04-30T16:31:11.020Z,99866.00
2024-04-30T16:33:39.067Z,99867.00
2024-04-30T16:36:07.394Z,99866.00
2024-04-30T16:38:34.947Z,99865.00
2024-04-30T16:41:03.604Z,99856.00
2024-04-30T16:43:30.837Z,99860.00
2024-04-30T16:45:58.088Z,99850.00
2024-04-30T16:48:27.511Z,99853.00
2024-04-30T16:50:55.136Z,99849.00
2024-04-30T16:53:22.315Z,99848.00
2024-04-30T16:55:49.860Z,99845.00
2024-04-30T16:58:17.133Z,99838.00
2024-04-30T17:00:44.381Z,99835.00
2024-04-30T17:03:12.147Z,99838.00
2024-04-30T17:05:39.411Z,99834.00
2024-04-30T17:08:07.013Z,99842.00
2024-04-30T17:10:34.556Z,99837.00
2024-04-30T17:13:02.077Z,99836.00
2024-04-30T17:15:29.841Z,99831.00
2024-04-30T17:17:58.199Z,99829.00
2024-04-30T17:20:25.443Z,99831.00
2024-04-30T17:22:52.933Z,99828.00
2024-04-30T17:25:20.479Z,99827.00
2024-04-30T17:27:47.712Z,99831.00
2024-04-30T17:30:15.421Z,99828.00
2024-04-30T17:32:43.459Z,99825.00
2024-04-30T17:35:10.677Z,99822.00
2024-04-30T17:37:37.932Z,99826.00
2024-04-30T17:40:07.357Z,99821.00
2024-04-30T17:42:34.689Z,99829.00
2024-04-30T17:45:03.336Z,99829.00
2024-04-30T17:47:30.943Z,99828.00
2024-04-30T17:49:58.158Z,99830.00
2024-04-30T17:52:25.386Z,99822.00
2024-04-30T17:54:53.026Z,99824.00
2024-04-30T17:57:20.668Z,99827.00
2024-04-30T17:59:47.996Z,99821.00
2024-04-30T18:02:15.562Z,99830.00
2024-04-30T18:04:42.867Z,99826.00
2024-04-30T18:07:10.170Z,99827.00
2024-04-30T18:09:41.601Z,99828.00
2024-04-30T18:12:09.065Z,99826.00
2024-04-30T18:14:36.263Z,99823.00
2024-04-30T18:17:04.766Z,99809.00
2024-04-30T18:19:32.147Z,99822.00
2024-04-30T18:21:59.420Z,99826.00
2024-04-30T18:24:27.068Z,99824.00
2024-04-30T18:26:54.302Z,99820.00
2024-04-30T18:29:21.577Z,99824.00
2024-04-30T18:31:52.936Z,99822.00
2024-04-30T18:34:20.376Z,99813.00
2024-04-30T18:36:48.222Z,99813.00
2024-04-30T18:39:16.222Z,99818.00
2024-04-30T18:41:43.885Z,99821.00
2024-04-30T18:44:11.109Z,99818.00
2024-04-30T18:46:38.646Z,99824.00
2024-04-30T18:49:05.935Z,99826.00
2024-04-30T18:51:33.256Z,99826.00
2024-04-30T18:54:01.011Z,99820.00
2024-04-30T18:56:28.190Z,99817.00
2024-04-30T18:58:56.125Z,99821.00
2024-04-30T19:01:24.145Z,99822.00
2024-04-30T19:03:53.406Z,99809.00
2024-04-30T19:06:21.536Z,99820.00
2024-04-30T19:08:49.506Z,99817.00
2024-04-30T19:11:16.831Z,99822.00
2024-04-30T19:13:44.963Z,99817.00
2024-04-30T19:16:12.650Z,99823.00
2024-04-30T19:18:40.057Z,99817.00
2024-04-30T19:21:10.250Z,99819.00
2024-04-30T19:23:37.811Z,99813.00
2024-04-30T19:26:11.678Z,99817.00
2024-04-30T19:28:39.401Z,99818.00
2024-04-30T19:31:06.784Z,99813.00
2024-04-30T19:33:38.704Z,99811.00
2024-04-30T19:36:06.514Z,99804.00
2024-04-30T19:38:33.681Z,99822.00
2024-04-30T19:41:01.836Z,99818.00
2024-04-30T19:43:29.317Z,99819.00
2024-04-30T19:45:56.527Z,99813.00
2024-04-30T19:48:28.098Z,99813.00
2024-04-30T19:50:57.265Z,99822.00
2024-04-30T19:53:24.661Z,99807.00
2024-04-30T19:55:51.779Z,99811.00
2024-04-30T19:58:19.337Z,99819.00
2024-04-30T20:00:46.616Z,99808.00
2024-04-30T20:03:14.096Z,99812.00
2024-04-30T20:05:43.503Z,99807.00
2024-04-30T20:08:10.628Z,99809.00
2024-04-30T20:10:37.858Z,99806.00
2024-04-30T20:13:05.746Z,99803.00
2024-04-30T20:15:33.000Z,99798.00
2024-04-30T20:18:00.530Z,99804.00
2024-04-30T20:20:28.643Z,99806.00
2024-04-30T20:22:58.999Z,99800.00
2024-04-30T20:25:26.311Z,99795.00
2024-04-30T20:27:53.882Z,99798.00
2024-04-30T20:30:21.130Z,99793.00
2024-04-30T20:32:48.431Z,99790.00
2024-04-30T20:35:16.092Z,99781.00
2024-04-30T20:37:43.247Z,99784.00
2024-04-30T20:40:10.507Z,99783.00
2024-04-30T20:42:38.159Z,99786.00
2024-04-30T20:45:06.184Z,99785.00
2024-04-30T20:47:33.432Z,99779.00
2024-04-30T20:50:01.001Z,99773.00
2024-04-30T20:52:28.170Z,99779.00
2024-04-30T20:54:55.509Z,99774.00
2024-04-30T20:57:23.123Z,99766.00
2024-04-30T20:59:50.242Z,99768.00
2024-04-30T21:02:17.767Z,99771.00
2024-04-30T21:04:45.338Z,99773.00
2024-04-30T21:07:12.446Z,99772.00
2024-04-30T21:09:39.624Z,99769.00
2024-04-30T21:12:07.397Z,99766.00
2024-04-30T21:14:34.552Z,99765.00
2024-04-30T21:17:04.748Z,99758.00
2024-04-30T21:19:33.219Z,99752.00
2024-04-30T21:22:00.483Z,99752.00
2024-04-30T21:24:27.691Z,99758.00
2024-04-30T21:26:55.437Z,99754.00
2024-04-30T21:29:22.615Z,99758.00
2024-04-30T21:31:50.310Z,99748.00
2024-04-30T21:34:18.318Z,99742.00
2024-04-30T21:36:46.705Z,99751.00
2024-04-30T21:39:14.589Z,99748.00
2024-04-30T21:41:42.453Z,99734.00
2024-04-30T21:44:09.928Z,99740.00
2024-04-30T21:46:43.931Z,99740.00
2024-04-30T21:49:14.659Z,99739.00
2024-04-30T21:51:45.550Z,99734.00
2024-04-30T21:54:15.067Z,99732.00
2024-04-30T21:56:42.314Z,99720.00
2024-04-30T21:59:09.522Z,99717.00
2024-04-30T22:01:37.340Z,99715.00
2024-04-30T22:04:04.661Z,99708.00
2024-04-30T22:06:32.408Z,99717.00
2024-04-30T22:09:01.274Z,99706.00
2024-04-30T22:11:28.575Z,99709.00
2024-04-30T22:13:55.748Z,99702.00
2024-04-30T22:16:23.291Z,99695.00
2024-04-30T22:18:50.975Z,99689.00
2024-04-30T22:21:20.442Z,99695.00
2024-04-30T22:23:49.430Z,99694.00
2024-04-30T22:26:16.649Z,99692.00
2024-04-30T22:28:43.817Z,99687.00
2024-04-30T22:31:11.349Z,99684.00
2024-04-30T22:33:38.567Z,99674.00
2024-04-30T22:36:06.190Z,99681.00
2024-04-30T22:38:33.746Z,99673.00
2024-04-30T22:41:00.942Z,99669.00
2024-04-30T22:43:28.128Z,99665.00
2024-04-30T22:45:56.908Z,99668.00
2024-04-30T22:48:24.252Z,99669.00
2024-04-30T22:50:51.750Z,99664.00
2024-04-30T22:53:19.276Z,99675.00
2024-04-30T22:55:47.029Z,99668.00
2024-04-30T22:58:14.539Z,99663.00
2024-04-30T23:00:42.093Z,99662.00
2024-04-30T23:03:09.533Z,99665.00
2024-04-30T23:05:37.220Z,99659.00
2024-04-30T23:08:05.194Z,99658.00
2024-04-30T23:10:32.437Z,99660.00
2024-04-30T23:12:59.639Z,99663.00
2024-04-30T23:15:27.278Z,99658.00
2024-04-30T23:17:54.532Z,99664.00
2024-04-30T23:20:21.927Z,99655.00
2024-04-30T23:22:49.964Z,99656.00
2024-04-30T23:25:17.199Z,99661.00
2024-04-30T23:27:47.092Z,99658.00
2024-04-30T23:30:14.717Z,99650.00
2024-04-30T23:32:42.002Z,99659.00
2024-04-30T23:35:09.163Z,99656.00
2024-04-30T23:37:36.681Z,99656.00
2024-04-30T23:40:04.089Z,99656.00
2024-04-30T23:42:31.648Z,99656.00
2024-04-30T23:44:59.268Z,99656.00
2024-04-30T23:47:26.457Z,99655.00
2024-04-30T23:49:53.963Z,99656.00
2024-04-30T23:52:21.605Z,99657.00
2024-04-30T23:54:48.864Z,99650.00
2024-04-30T23:57:16.239Z,99645.00
2024-04-30T23:59:43.976Z,99649.00
